Time;durP1;ratioP1;P1;durP2;ratioP2;P2;SDS_P1;SDS_P2;PMS_P1;PMS_P2;Temp;Humidity;BMP_temperature;BMP_pressure;BME280_temperature;BME280_humidity;BME280_pressure;Samples;Min_cycle;Max_cycle;Signal;HPM_P1;HPM_P2
2023/04/05 00:00:25;;;;;;;10.95;4.40;;;0.70;99.90;;;;;;4920551;29;20127;-77
2023/04/05 00:02:51;;;;;;;13.82;10.50;;;0.60;99.90;;;;;;4914429;29;20154;-77
2023/04/05 00:05:28;;;;;;;7.05;4.25;;;0.50;99.90;;;;;;4910267;29;20047;-77
2023/04/05 00:08:00;;;;;;;6.35;3.83;;;0.50;99.90;;;;;;4915397;29;20122;-77
2023/04/05 00:10:27;;;;;;;9.18;4.45;;;0.40;99.90;;;;;;4917201;29;20139;-77
2023/04/05 00:12:52;;;;;;;11.55;9.82;;;0.30;99.90;;;;;;4898427;29;20426;-77
2023/04/05 00:15:18;;;;;;;9.23;4.82;;;0.20;99.90;;;;;;4898349;29;20048;-77
2023/04/05 00:17:44;;;;;;;11.68;10.27;;;0.20;99.90;;;;;;4909429;29;20074;-77
2023/04/05 00:20:11;;;;;;;9.50;5.00;;;0.10;99.90;;;;;;4901223;29;20388;-77
2023/04/05 00:22:37;;;;;;;14.43;10.77;;;0.10;99.90;;;;;;4919555;29;20414;-75
2023/04/05 00:25:04;;;;;;;10.05;5.15;;;0.00;99.90;;;;;;4885989;29;20079;-75
2023/04/05 00:27:30;;;;;;;7.60;5.03;;;0.00;99.90;;;;;;4911289;29;20053;-75
2023/04/05 00:29:55;;;;;;;13.38;11.43;;;-0.10;99.90;;;;;;4927511;29;20134;-75
2023/04/05 00:32:21;;;;;;;11.43;5.20;;;-0.10;99.90;;;;;;4904559;29;20449;-75
2023/04/05 00:34:47;;;;;;;6.95;4.30;;;-0.20;99.90;;;;;;4904477;29;20074;-75
2023/04/05 00:37:12;;;;;;;7.22;4.63;;;-0.20;99.90;;;;;;4919485;29;20046;-75
2023/04/05 00:39:38;;;;;;;13.75;5.13;;;-0.20;99.90;;;;;;4927906;29;20090;-75
2023/04/05 00:42:04;;;;;;;9.27;4.93;;;-0.20;99.90;;;;;;4919053;29;20410;-75
2023/04/05 00:44:33;;;;;;;8.73;5.18;;;-0.30;99.90;;;;;;4919970;29;20040;-75
2023/04/05 00:47:06;;;;;;;11.38;4.82;;;-0.30;99.90;;;;;;4919622;29;20031;-75
2023/04/05 00:49:33;;;;;;;9.73;5.38;;;-0.40;99.90;;;;;;4919978;29;20457;-75
2023/04/05 00:51:59;;;;;;;9.70;5.70;;;-0.40;99.90;;;;;;4919139;29;20544;-75
2023/04/05 00:54:27;;;;;;;12.05;4.60;;;-0.50;99.90;;;;;;4904166;29;20142;-75
2023/04/05 00:56:54;;;;;;;11.57;5.65;;;-0.60;99.90;;;;;;4918470;29;20414;-75
2023/04/05 00:59:20;;;;;;;11.00;5.53;;;-0.60;99.90;;;;;;4911762;29;20099;-75
2023/04/05 01:01:54;;;;;;;10.35;5.40;;;-0.70;99.90;;;;;;4919035;29;20050;-75
2023/04/05 01:04:26;;;;;;;9.05;4.95;;;-0.70;99.90;;;;;;4919724;29;20168;-75
2023/04/05 01:07:07;;;;;;;14.38;4.90;;;-0.80;99.90;;;;;;4902926;29;20482;-75
2023/04/05 01:09:36;;;;;;;11.20;5.50;;;-0.80;99.90;;;;;;4926941;29;20053;-75
2023/04/05 01:12:06;;;;;;;9.93;5.18;;;-0.90;99.90;;;;;;4919986;29;20126;-75
2023/04/05 01:14:32;;;;;;;9.55;5.03;;;-0.90;99.90;;;;;;4919793;29;20498;-75
2023/04/05 01:16:57;;;;;;;9.43;4.82;;;-1.00;99.90;;;;;;4918644;29;20332;-75
2023/04/05 01:19:33;;;;;;;12.80;4.25;;;-1.00;99.90;;;;;;4925618;29;20055;-75
2023/04/05 01:22:25;;;;;;;12.98;5.20;;;-1.00;99.90;;;;;;4918081;29;20056;-75
2023/04/05 01:25:01;;;;;;;8.77;5.28;;;-1.00;99.90;;;;;;4918927;29;20047;-75
2023/04/05 01:28:01;;;;;;;6.75;4.53;;;-1.10;99.90;;;;;;4902459;29;20047;-74
2023/04/05 01:30:38;;;;;;;8.30;4.40;;;-1.10;99.90;;;;;;4929881;29;20051;-75
2023/04/05 01:33:20;;;;;;;8.93;5.13;;;-1.10;99.90;;;;;;4918805;29;20052;-74
2023/04/05 01:36:22;;;;;;;9.80;4.95;;;-1.10;99.90;;;;;;4919205;29;20035;-74
2023/04/05 01:38:49;;;;;;;9.13;5.15;;;-1.20;99.90;;;;;;4912828;29;20051;-74
2023/04/05 01:41:15;;;;;;;9.20;4.80;;;-1.10;99.90;;;;;;4922148;29;20031;-74
2023/04/05 01:43:41;;;;;;;8.23;5.20;;;-1.20;99.90;;;;;;4903462;29;20123;-75
2023/04/05 01:46:06;;;;;;;8.57;4.78;;;-1.20;99.90;;;;;;4906110;29;20047;-74
2023/04/05 01:48:32;;;;;;;9.57;5.15;;;-1.30;99.90;;;;;;4912982;29;20039;-75
2023/04/05 01:50:57;;;;;;;9.15;5.03;;;-1.30;99.90;;;;;;4917167;29;20048;-75
2023/04/05 01:53:24;;;;;;;10.27;4.93;;;-1.30;99.90;;;;;;4912339;29;20054;-74
2023/04/05 01:55:50;;;;;;;11.15;5.93;;;-1.30;99.90;;;;;;4889738;29;20086;-74
2023/04/05 01:58:15;;;;;;;14.77;4.93;;;-1.30;99.90;;;;;;4916761;29;20051;-74
2023/04/05 02:00:41;;;;;;;12.45;5.28;;;-1.30;99.90;;;;;;4901778;29;20435;-75
2023/04/05 02:03:06;;;;;;;12.32;6.00;;;-1.40;99.90;;;;;;4898521;29;20523;-75
2023/04/05 02:05:32;;;;;;;13.15;6.90;;;-1.40;99.90;;;;;;4901857;29;20563;-75
2023/04/05 02:07:57;;;;;;;12.60;5.70;;;-1.40;99.90;;;;;;4918581;29;20091;-75
2023/04/05 02:10:23;;;;;;;9.13;5.00;;;-1.40;99.90;;;;;;4902985;29;20095;-74
2023/04/05 02:12:50;;;;;;;11.68;5.63;;;-1.50;99.90;;;;;;4917529;29;20043;-75
2023/04/05 02:15:15;;;;;;;16.73;13.95;;;-1.50;99.90;;;;;;4917845;29;20039;-74
2023/04/05 02:17:44;;;;;;;10.60;5.57;;;-1.50;99.90;;;;;;4913073;29;20058;-75
2023/04/05 02:20:11;;;;;;;12.18;6.13;;;-1.50;99.90;;;;;;4930545;29;20040;-74
2023/04/05 02:22:38;;;;;;;11.25;6.07;;;-1.50;99.90;;;;;;4921678;29;20061;-75
2023/04/05 02:25:07;;;;;;;11.57;5.63;;;-1.60;99.90;;;;;;4937363;29;20043;-74
2023/04/05 02:27:33;;;;;;;12.70;5.82;;;-1.60;99.90;;;;;;4916404;29;20044;-75
2023/04/05 02:29:59;;;;;;;12.32;6.38;;;-1.60;99.90;;;;;;4899265;29;20048;-74
2023/04/05 02:32:24;;;;;;;12.40;5.50;;;-1.60;99.90;;;;;;4899051;29;20050;-74
2023/04/05 02:34:51;;;;;;;10.50;6.93;;;-1.60;99.90;;;;;;4899239;29;20044;-74
2023/04/05 02:37:17;;;;;;;11.35;5.82;;;-1.70;99.90;;;;;;4913331;29;20047;-75
2023/04/05 02:39:43;;;;;;;14.35;6.57;;;-1.70;99.90;;;;;;4915858;29;20130;-74
2023/04/05 02:42:09;;;;;;;12.80;6.78;;;-1.70;99.90;;;;;;4902403;29;20058;-74
2023/04/05 02:44:35;;;;;;;9.25;5.95;;;-1.70;99.90;;;;;;4916867;29;20233;-74
2023/04/05 02:47:01;;;;;;;14.15;6.25;;;-1.70;99.90;;;;;;4916157;29;20040;-74
2023/04/05 02:49:26;;;;;;;10.70;6.13;;;-1.80;99.90;;;;;;4901521;29;20463;-74
2023/04/05 02:51:52;;;;;;;13.35;6.97;;;-1.80;99.90;;;;;;4917696;29;20134;-76
2023/04/05 02:54:18;;;;;;;11.70;6.28;;;-1.80;99.90;;;;;;4917348;29;20048;-74
2023/04/05 02:56:43;;;;;;;14.05;6.50;;;-1.80;99.90;;;;;;4916049;29;20044;-74
2023/04/05 02:59:09;;;;;;;12.10;5.93;;;-1.90;99.90;;;;;;4916651;29;20044;-74
2023/04/05 03:01:35;;;;;;;12.07;7.07;;;-1.90;99.90;;;;;;4893769;29;20090;-74
2023/04/05 03:04:01;;;;;;;10.05;6.18;;;-1.90;99.90;;;;;;4893669;29;20075;-74
2023/04/05 03:06:27;;;;;;;11.18;6.63;;;-1.90;99.90;;;;;;4900086;29;20040;-74
2023/04/05 03:09:17;;;;;;;12.48;6.00;;;-1.90;99.90;;;;;;4945438;23;20051;-80
2023/04/05 03:11:48;;;;;;;8.93;6.00;;;-2.00;99.90;;;;;;4924423;29;20071;-80
2023/04/05 03:14:38;;;;;;;11.52;6.43;;;-1.90;99.90;;;;;;4915599;29;20462;-79
2023/04/05 03:17:24;;;;;;;10.82;6.47;;;-2.00;99.90;;;;;;4920370;29;20035;-80
2023/04/05 03:20:16;;;;;;;10.70;6.07;;;-2.00;99.90;;;;;;4942341;29;20486;-79
2023/04/05 03:22:51;;;;;;;10.15;6.38;;;-2.10;99.90;;;;;;4920712;29;20047;-79
2023/04/05 03:25:20;;;;;;;9.45;5.57;;;-2.10;99.90;;;;;;4887251;29;20482;-79
2023/04/05 03:27:54;;;;;;;12.18;6.20;;;-2.10;99.90;;;;;;4918871;29;20106;-80
2023/04/05 03:30:23;;;;;;;14.52;6.57;;;-2.20;99.90;;;;;;4921222;29;20118;-80
2023/04/05 03:33:03;;;;;;;11.20;5.63;;;-2.20;99.90;;;;;;4920288;29;20049;-80
2023/04/05 03:35:39;;;;;;;9.43;5.32;;;-2.20;99.90;;;;;;4920943;29;20525;-79
2023/04/05 03:38:22;;;;;;;10.77;5.75;;;-2.20;99.90;;;;;;4920090;28;20043;-80
2023/04/05 03:40:56;;;;;;;11.20;6.05;;;-2.30;99.90;;;;;;4922117;29;20082;-79
2023/04/05 03:43:38;;;;;;;10.80;6.45;;;-2.20;99.90;;;;;;4936634;29;20039;-79
2023/04/05 03:46:27;;;;;;;;;;;;;;;;;;;;;
2023/04/05 03:49:02;;;;;;;10.43;5.97;;;-2.20;99.90;;;;;;4935986;29;20066;-80
2023/04/05 03:51:32;;;;;;;14.13;6.10;;;-2.20;99.90;;;;;;4921279;29;20039;-80
2023/04/05 03:54:13;;;;;;;7.95;5.47;;;-2.30;99.90;;;;;;4916039;29;20051;-80
2023/04/05 03:56:39;;;;;;;10.35;5.57;;;-2.20;99.90;;;;;;4916728;29;20039;-80
2023/04/05 03:59:14;;;;;;;11.15;6.40;;;-2.30;99.90;;;;;;4921585;29;20066;-79
2023/04/05 04:01:47;;;;;;;8.82;5.28;;;-2.40;99.90;;;;;;4927983;29;20126;-79
2023/04/05 04:04:24;;;;;;;11.45;5.15;;;-2.40;99.90;;;;;;4924006;29;20043;-79
2023/04/05 04:06:55;;;;;;;12.63;5.60;;;-2.40;99.90;;;;;;4931735;29;20044;-79
2023/04/05 04:09:30;;;;;;;11.00;5.45;;;-2.50;99.90;;;;;;4932931;28;20043;-79
2023/04/05 04:12:03;;;;;;;9.75;6.13;;;-2.50;99.90;;;;;;4945166;28;20069;-80
2023/04/05 04:14:30;;;;;;;16.95;6.65;;;-2.50;99.90;;;;;;4932463;29;20381;-79
2023/04/05 04:17:03;;;;;;;9.57;5.45;;;-2.60;99.90;;;;;;4941363;29;20043;-79
2023/04/05 04:19:32;;;;;;;11.35;5.38;;;-2.60;99.90;;;;;;4925324;29;20039;-79
2023/04/05 04:21:59;;;;;;;9.52;5.63;;;-2.50;99.90;;;;;;4925358;29;20047;-79
2023/04/05 04:24:31;;;;;;;11.02;5.72;;;-2.50;99.90;;;;;;4914575;29;20095;-79
2023/04/05 04:27:01;;;;;;;10.98;6.22;;;-2.60;99.90;;;;;;4923259;29;20811;-79
2023/04/05 04:30:00;;;;;;;11.70;6.80;;;-2.60;99.90;;;;;;4906648;29;20172;-79
2023/04/05 04:33:20;;;;;;;10.77;5.82;;;-2.60;99.90;;;;;;4905648;29;20055;-79
2023/04/05 04:38:07;;;;;;;;;;;-2.70;99.90;;;;;;4922581;29;20158;-79
2023/04/05 04:40:38;;;;;;;13.38;5.80;;;-2.70;99.90;;;;;;4922035;29;20329;-79
2023/04/05 04:43:13;;;;;;;11.35;5.90;;;-2.70;99.90;;;;;;4923692;29;20078;-79
2023/04/05 04:45:40;;;;;;;13.82;6.22;;;-2.70;99.90;;;;;;4920925;29;20474;-78
2023/04/05 04:48:07;;;;;;;15.20;6.40;;;-2.70;99.90;;;;;;4923266;29;20062;-78
2023/04/05 04:50:47;;;;;;;15.48;7.38;;;-2.80;99.90;;;;;;4939576;29;20409;-78
2023/04/05 04:53:31;;;;;;;13.10;6.85;;;-2.80;99.90;;;;;;4936095;28;20077;-79
2023/04/05 04:56:06;;;;;;;18.08;6.38;;;-2.70;99.90;;;;;;4921425;29;20059;-79
2023/04/05 04:58:59;;;;;;;15.02;7.00;;;-2.80;99.90;;;;;;4921548;29;20068;-78
2023/04/05 05:01:32;;;;;;;12.65;7.18;;;-2.70;99.90;;;;;;4904441;29;20051;-79
2023/04/05 05:04:12;;;;;;;17.05;7.68;;;-2.70;99.90;;;;;;4905254;29;20127;-79
2023/04/05 05:06:43;;;;;;;13.30;6.95;;;-2.70;99.90;;;;;;4919770;29;20072;-79
2023/04/05 05:09:20;;;;;;;13.25;6.93;;;-2.60;99.90;;;;;;4921762;29;20075;-78
2023/04/05 05:11:47;;;;;;;11.35;6.95;;;-2.70;99.90;;;;;;4928287;28;20489;-78
2023/04/05 05:14:14;;;;;;;13.93;7.47;;;-2.80;99.90;;;;;;4922410;29;20043;-79
2023/04/05 05:16:52;;;;;;;13.68;7.50;;;-2.70;99.90;;;;;;4904422;29;20039;-78
2023/04/05 05:19:19;;;;;;;11.48;5.78;;;-2.70;99.90;;;;;;4911088;28;20024;-78
2023/04/05 05:21:48;;;;;;;17.05;7.82;;;-2.70;99.90;;;;;;4929658;28;20035;-79
2023/04/05 05:24:18;;;;;;;12.80;7.97;;;-2.70;99.90;;;;;;4928894;29;20051;-78
2023/04/05 05:26:45;;;;;;;16.55;6.60;;;-2.70;99.90;;;;;;4923459;29;20047;-79
2023/04/05 05:29:14;;;;;;;12.82;7.20;;;-2.60;99.90;;;;;;4941797;29;20043;-79
2023/04/05 05:31:50;;;;;;;14.98;7.63;;;-2.60;99.90;;;;;;4913523;28;20051;-79
2023/04/05 05:34:19;;;;;;;16.58;8.55;;;-2.60;99.90;;;;;;4921756;29;20110;-79
2023/04/05 05:36:48;;;;;;;16.10;8.10;;;-2.60;99.90;;;;;;4894805;29;20047;-79
2023/04/05 05:39:20;;;;;;;19.90;8.48;;;-2.60;99.90;;;;;;4892121;29;20055;-78
2023/04/05 05:42:03;;;;;;;15.63;6.60;;;-2.60;99.90;;;;;;4920620;28;20057;-80
2023/04/05 05:44:32;;;;;;;13.13;7.70;;;-2.60;99.90;;;;;;4922603;29;20059;-79
2023/04/05 05:47:06;;;;;;;14.63;7.00;;;-2.50;99.90;;;;;;4915162;29;20130;-79
2023/04/05 05:49:33;;;;;;;15.65;8.15;;;-2.50;99.90;;;;;;4920022;29;20039;-80
2023/04/05 05:52:11;;;;;;;16.60;8.18;;;-2.40;99.90;;;;;;4918585;28;20047;-79
2023/04/05 05:54:40;;;;;;;20.48;9.20;;;-2.40;99.90;;;;;;4938801;28;20042;-79
2023/04/05 05:57:10;;;;;;;18.95;8.00;;;-2.30;99.90;;;;;;4931897;29;20528;-79
2023/04/05 06:00:14;;;;;;;19.85;9.30;;;-2.30;99.90;;;;;;4924842;29;20413;-80
2023/04/05 06:03:40;;;;;;;8.30;6.25;;;-2.20;99.90;;;;;;4933176;28;20031;-80
2023/04/05 06:09:49;;;;;;;15.20;8.52;;;-1.70;99.90;;;;;;4955336;29;20086;-83
2023/04/05 06:12:22;;;;;;;15.27;8.48;;;-1.50;99.90;;;;;;4925212;29;20062;-82
2023/04/05 06:15:17;;;;;;;19.63;8.65;;;-1.50;99.90;;;;;;4932742;28;20047;-80
2023/04/05 06:18:42;;;;;;;13.82;9.48;;;-1.40;99.90;;;;;;4937962;29;20055;-81
2023/04/05 06:22:12;;;;;;;12.27;7.07;;;-1.20;99.90;;;;;;4921541;28;20051;-81
2023/04/05 06:28:31;;;;;;;17.00;9.00;;;-0.80;99.90;;;;;;4954538;29;20047;-81
2023/04/05 06:31:47;;;;;;;;;;;;;;;;;;;;;
2023/04/05 06:34:49;;;;;;;13.15;7.45;;;-0.50;99.90;;;;;;4939237;29;20099;-81
2023/04/05 06:37:26;;;;;;;;;;;;;;;;;;;;;
2023/04/05 06:40:01;;;;;;;15.38;8.60;;;-0.20;99.90;;;;;;4943073;29;20122;-81
2023/04/05 06:42:33;;;;;;;12.60;8.32;;;-0.10;99.90;;;;;;4921340;29;20071;-80
2023/04/05 06:45:03;;;;;;;18.23;10.88;;;0.00;99.90;;;;;;4923252;29;20509;-78
2023/04/05 06:47:51;;;;;;;17.67;10.55;;;0.20;99.90;;;;;;4920928;29;20524;-80
2023/04/05 06:50:30;;;;;;;;;;;;;;;;;;;;;
2023/04/05 06:53:19;;;;;;;20.83;11.13;;;0.40;99.90;;;;;;4955328;29;20066;-80
2023/04/05 06:55:51;;;;;;;25.30;11.68;;;0.50;99.90;;;;;;4913119;29;20685;-79
2023/04/05 06:58:20;;;;;;;26.70;22.10;;;0.60;99.90;;;;;;4911604;29;20061;-79
2023/04/05 07:00:56;;;;;;;16.58;10.02;;;0.70;99.90;;;;;;4919042;29;20413;-79
2023/04/05 07:03:56;;;;;;;15.93;10.68;;;0.70;99.90;;;;;;4929088;29;20043;-79
2023/04/05 07:06:49;;;;;;;20.10;11.55;;;0.90;99.90;;;;;;4927975;29;20035;-78
2023/04/05 07:09:58;;;;;;;16.00;10.18;;;1.00;99.90;;;;;;4924519;28;20062;-79
2023/04/05 07:12:54;;;;;;;24.40;20.63;;;1.20;99.90;;;;;;4941646;28;20074;-79
2023/04/05 07:15:44;;;;;;;23.92;21.15;;;1.40;99.90;;;;;;4945348;28;20050;-79
2023/04/05 07:18:19;;;;;;;16.73;8.90;;;1.50;99.90;;;;;;4944147;28;20054;-79
2023/04/05 07:21:16;;;;;;;21.17;18.95;;;1.50;99.90;;;;;;4930972;28;20454;-78
2023/04/05 07:24:26;;;;;;;21.52;19.27;;;1.70;99.90;;;;;;4945839;28;20509;-79
2023/04/05 07:27:42;;;;;;;;;;;;;;;;;;;;;
2023/04/05 07:30:54;;;;;;;14.95;9.30;;;2.00;99.90;;;;;;4945863;28;20060;-79
2023/04/05 07:33:52;;;;;;;13.88;9.25;;;2.00;99.90;;;;;;4907851;29;20039;-79
2023/04/05 07:37:11;;;;;;;21.38;19.27;;;2.10;99.90;;;;;;4916898;29;20047;-79
2023/04/05 07:39:50;;;;;;;17.40;10.73;;;2.10;99.90;;;;;;4935046;28;20090;-80
2023/04/05 07:42:43;;;;;;;;;;;;;;;;;;;;;
2023/04/05 07:45:55;;;;;;;;;;;;;;;;;;;;;
2023/04/05 07:48:58;;;;;;;20.40;17.50;;;2.40;99.90;;;;;;4929769;28;20596;-79
2023/04/05 07:51:53;;;;;;;23.67;17.80;;;2.60;99.90;;;;;;4926620;28;20052;-78
2023/04/05 07:58:00;;;;;;;19.15;17.15;;;3.00;99.90;;;;;;4935487;29;20050;-76
2023/04/05 08:00:28;;;;;;;18.08;16.17;;;3.10;99.90;;;;;;4926785;29;20102;-78
2023/04/05 08:03:24;;;;;;;17.00;15.38;;;3.20;99.90;;;;;;4919222;29;20040;-79
2023/04/05 08:05:53;;;;;;;16.58;14.98;;;3.30;99.90;;;;;;4917784;28;20044;-77
2023/04/05 08:08:22;;;;;;;16.23;14.63;;;3.40;99.90;;;;;;4917790;29;20071;-77
2023/04/05 08:10:54;;;;;;;16.58;14.48;;;3.60;99.90;;;;;;4936612;29;20122;-77
2023/04/05 08:13:20;;;;;;;18.27;16.00;;;3.60;99.90;;;;;;4917796;29;20113;-77
2023/04/05 08:15:47;;;;;;;17.10;15.18;;;3.70;99.90;;;;;;4923030;29;20067;-78
2023/04/05 08:18:15;;;;;;;17.58;14.30;;;3.80;99.90;;;;;;4921301;29;20047;-77
2023/04/05 08:20:41;;;;;;;17.52;15.93;;;4.00;99.90;;;;;;4919141;29;20493;-78
2023/04/05 08:23:18;;;;;;;16.45;14.40;;;4.10;99.90;;;;;;4915794;29;20043;-79
2023/04/05 08:25:44;;;;;;;15.05;13.45;;;4.30;99.90;;;;;;4915241;28;20042;-77
2023/04/05 08:28:11;;;;;;;12.25;11.05;;;4.40;99.90;;;;;;4916452;29;20130;-77
2023/04/05 08:30:38;;;;;;;14.60;11.35;;;4.50;99.90;;;;;;4919751;29;20490;-78
2023/04/05 08:33:07;;;;;;;14.88;13.40;;;4.60;99.90;;;;;;4914602;29;20126;-78
2023/04/05 08:35:43;;;;;;;13.30;11.85;;;4.70;99.90;;;;;;4907814;29;20046;-78
2023/04/05 08:38:11;;;;;;;12.32;11.13;;;4.90;99.90;;;;;;4904386;29;20066;-77
2023/04/05 08:40:42;;;;;;;13.32;11.93;;;5.10;99.90;;;;;;4914925;29;20110;-78
2023/04/05 08:43:32;;;;;;;14.10;12.23;;;5.60;99.90;;;;;;4931035;28;20531;-78
2023/04/05 08:46:01;;;;;;;11.45;9.77;;;6.80;99.90;;;;;;4928152;29;20031;-78
2023/04/05 08:48:33;;;;;;;11.40;9.98;;;8.00;99.90;;;;;;4932126;28;20448;-78
2023/04/05 08:51:00;;;;;;;10.45;9.30;;;8.90;99.90;;;;;;4943288;28;20057;-78
2023/04/05 08:53:26;;;;;;;8.52;7.70;;;9.80;99.90;;;;;;4936625;29;20118;-79
2023/04/05 08:55:55;;;;;;;9.55;7.90;;;10.60;99.90;;;;;;4918966;29;20039;-78
2023/04/05 08:58:23;;;;;;;8.07;7.00;;;11.20;99.90;;;;;;4923569;29;20402;-78
2023/04/05 09:00:50;;;;;;;8.43;7.22;;;11.50;99.90;;;;;;4929872;29;20031;-77
2023/04/05 09:03:27;;;;;;;9.07;7.85;;;11.90;99.90;;;;;;4935045;29;20039;-78
2023/04/05 09:05:57;;;;;;;9.23;7.05;;;12.30;99.90;;;;;;4928452;28;20051;-79
2023/04/05 09:08:26;;;;;;;8.33;7.53;;;12.70;99.90;;;;;;4921962;29;20031;-77
2023/04/05 09:10:51;;;;;;;8.88;7.05;;;13.20;99.90;;;;;;4946972;23;20048;-73
2023/04/05 09:13:18;;;;;;;8.23;7.38;;;13.60;91.40;;;;;;4917946;29;20044;-73
2023/04/05 09:15:45;;;;;;;7.32;6.47;;;13.80;90.50;;;;;;4952383;29;20090;-74
2023/04/05 09:18:10;;;;;;;8.07;6.05;;;14.10;91.50;;;;;;4931504;29;20040;-75
2023/04/05 09:20:36;;;;;;;8.27;6.22;;;14.40;81.90;;;;;;4916099;29;20048;-73
2023/04/05 09:23:02;;;;;;;7.22;6.43;;;14.50;80.50;;;;;;4917783;29;20414;-74
2023/04/05 09:25:30;;;;;;;7.35;6.13;;;14.60;78.80;;;;;;4919122;29;20043;-73
2023/04/05 09:27:56;;;;;;;7.68;6.15;;;14.70;75.10;;;;;;4918362;29;20043;-73
2023/04/05 09:30:22;;;;;;;7.35;5.85;;;14.90;73.60;;;;;;4919104;29;20047;-73
2023/04/05 09:32:54;;;;;;;8.00;6.05;;;15.00;68.20;;;;;;4934883;29;20383;-73
2023/04/05 09:35:28;;;;;;;7.07;6.00;;;15.10;67.30;;;;;;4918739;29;20036;-74
2023/04/05 09:37:56;;;;;;;6.95;6.20;;;15.30;69.20;;;;;;4915937;29;20087;-74
2023/04/05 09:40:22;;;;;;;6.80;6.10;;;15.30;70.80;;;;;;4918156;29;20118;-73
2023/04/05 09:42:48;;;;;;;7.22;6.05;;;15.40;67.80;;;;;;4918760;29;20046;-73
2023/04/05 09:45:14;;;;;;;6.47;5.45;;;15.20;64.40;;;;;;4934141;29;20043;-74
2023/04/05 09:47:40;;;;;;;7.28;5.78;;;15.30;64.30;;;;;;4934090;29;20047;-74
2023/04/05 09:50:15;;;;;;;7.15;6.03;;;15.20;61.80;;;;;;4918332;29;20056;-73
2023/04/05 09:52:42;;;;;;;6.70;5.90;;;15.30;60.30;;;;;;4915408;29;20181;-73
2023/04/05 09:55:08;;;;;;;6.00;5.32;;;15.30;61.80;;;;;;4915828;29;20086;-73
2023/04/05 09:57:36;;;;;;;5.75;4.80;;;15.40;62.20;;;;;;4920681;29;20048;-74
2023/04/05 10:00:04;;;;;;;6.43;5.07;;;15.60;63.50;;;;;;4933796;29;20048;-73
2023/04/05 10:02:39;;;;;;;5.75;5.07;;;15.70;59.80;;;;;;4919378;29;20083;-73
2023/04/05 10:05:12;;;;;;;8.15;5.13;;;15.70;58.40;;;;;;4917135;29;20040;-74
2023/04/05 10:07:38;;;;;;;;;;;15.70;58.20;;;;;;4915518;29;20123;-74
2023/04/05 10:10:04;;;;;;;5.70;4.90;;;15.80;58.50;;;;;;4918558;29;19997;-74
2023/04/05 10:12:31;;;;;;;6.57;5.13;;;15.70;61.40;;;;;;4916538;29;20039;-74
2023/04/05 10:14:57;;;;;;;6.32;4.90;;;15.80;59.70;;;;;;4921399;29;20101;-74
2023/04/05 10:17:29;;;;;;;6.15;4.93;;;15.90;57.00;;;;;;4916894;29;20047;-74
2023/04/05 10:20:15;;;;;;;7.30;4.90;;;15.80;56.60;;;;;;4915671;29;20060;-74
2023/04/05 10:22:58;;;;;;;6.00;4.90;;;16.00;55.40;;;;;;4918195;29;20044;-73
2023/04/05 10:25:26;;;;;;;;;;;16.00;56.60;;;;;;4919213;29;20379;-73
2023/04/05 10:27:55;;;;;;;6.40;4.95;;;16.10;52.90;;;;;;4916653;29;19919;-74
2023/04/05 10:30:24;;;;;;;6.53;4.93;;;16.10;55.10;;;;;;4901565;29;20052;-73
2023/04/05 10:33:14;;;;;;;6.50;4.70;;;16.40;49.00;;;;;;4917833;29;20044;-73
2023/04/05 10:35:54;;;;;;;7.50;5.05;;;16.00;50.50;;;;;;4918351;29;20534;-74
2023/04/05 10:38:28;;;;;;;7.47;4.70;;;15.80;55.40;;;;;;4917256;29;20118;-74
2023/04/05 10:41:01;;;;;;;6.38;5.00;;;16.10;48.10;;;;;;4917023;29;20043;-74
2023/04/05 10:43:29;;;;;;;7.57;4.60;;;16.00;48.90;;;;;;4917632;29;20071;-73
2023/04/05 10:45:58;;;;;;;6.18;4.68;;;15.40;51.00;;;;;;4926774;29;20051;-74
2023/04/05 10:48:46;;;;;;;5.22;4.43;;;15.40;55.90;;;;;;4922315;29;20059;-74
2023/04/05 10:51:13;;;;;;;7.63;4.82;;;15.70;53.60;;;;;;4913791;29;20107;-74
2023/04/05 10:53:40;;;;;;;6.38;5.05;;;16.00;55.30;;;;;;4911932;29;20039;-74
2023/04/05 10:56:06;;;;;;;6.32;4.40;;;16.40;55.80;;;;;;4917415;29;20112;-74
2023/04/05 10:58:35;;;;;;;5.53;4.25;;;16.70;54.30;;;;;;4916770;29;20051;-75
2023/04/05 11:01:01;;;;;;;6.22;5.05;;;17.00;48.60;;;;;;4914833;29;20127;-74
2023/04/05 11:03:48;;;;;;;5.95;4.70;;;17.00;48.40;;;;;;4915315;29;20481;-74
2023/04/05 11:06:21;;;;;;;5.22;4.70;;;16.80;48.20;;;;;;4917844;29;20043;-74
2023/04/05 11:08:49;;;;;;;5.50;4.55;;;17.00;49.60;;;;;;4917730;29;20040;-74
2023/04/05 11:11:17;;;;;;;6.00;4.85;;;17.10;49.30;;;;;;4903858;29;20127;-74
2023/04/05 11:13:54;;;;;;;6.32;4.63;;;17.20;48.40;;;;;;4899008;29;20532;-74
2023/04/05 11:16:21;;;;;;;7.68;5.20;;;17.30;50.50;;;;;;4899301;29;20111;-74
2023/04/05 11:18:49;;;;;;;7.10;4.95;;;17.30;52.20;;;;;;4903805;29;20539;-74
2023/04/05 11:21:25;;;;;;;5.63;4.28;;;17.50;53.00;;;;;;4917338;29;20043;-74
2023/04/05 11:24:05;;;;;;;7.13;4.95;;;17.70;53.20;;;;;;4917562;29;20553;-74
2023/04/05 11:26:39;;;;;;;6.10;4.47;;;17.70;49.10;;;;;;4917605;29;20051;-74
2023/04/05 11:29:09;;;;;;;5.32;4.55;;;17.70;49.40;;;;;;4917421;29;20098;-74
2023/04/05 11:31:35;;;;;;;5.80;4.50;;;17.60;52.00;;;;;;4917413;29;20043;-74
2023/04/05 11:34:11;;;;;;;5.82;4.57;;;17.80;53.10;;;;;;4917320;29;20490;-74
2023/04/05 11:36:37;;;;;;;5.55;4.70;;;17.80;50.70;;;;;;4916344;29;20051;-74
2023/04/05 11:39:22;;;;;;;5.80;4.68;;;17.60;51.30;;;;;;4917294;29;20040;-74
2023/04/05 11:41:54;;;;;;;5.35;4.57;;;17.50;51.40;;;;;;4917238;29;20043;-74
2023/04/05 11:44:20;;;;;;;5.40;4.90;;;17.80;49.30;;;;;;4917366;29;20039;-74
2023/04/05 11:46:46;;;;;;;5.88;4.70;;;18.00;46.60;;;;;;4917392;29;20055;-74
2023/04/05 11:49:13;;;;;;;6.35;5.15;;;17.90;47.10;;;;;;4917240;29;20059;-74
2023/04/05 11:51:43;;;;;;;7.50;5.13;;;17.80;48.10;;;;;;4916872;29;20040;-73
2023/04/05 11:54:11;;;;;;;6.82;4.78;;;17.70;47.10;;;;;;4912852;29;20075;-74
2023/04/05 11:56:37;;;;;;;5.35;4.57;;;17.60;47.60;;;;;;4914072;29;20127;-74
2023/04/05 11:59:02;;;;;;;5.72;4.85;;;17.60;46.50;;;;;;4915854;29;20119;-74
2023/04/05 12:01:28;;;;;;;6.53;4.65;;;17.60;45.20;;;;;;4916691;29;20405;-74
2023/04/05 12:03:54;;;;;;;7.57;4.85;;;17.40;47.90;;;;;;4917515;29;20046;-74
2023/04/05 12:06:25;;;;;;;8.25;5.25;;;17.50;46.30;;;;;;4917162;29;20043;-74
2023/04/05 12:08:54;;;;;;;8.40;5.53;;;17.60;47.40;;;;;;4917089;29;20050;-74
2023/04/05 12:11:32;;;;;;;5.68;5.07;;;17.70;48.60;;;;;;4915747;29;20040;-74
2023/04/05 12:14:01;;;;;;;6.55;5.38;;;17.80;49.90;;;;;;4917016;29;20039;-73
2023/04/05 12:16:27;;;;;;;6.65;5.28;;;17.80;51.10;;;;;;4919914;29;20401;-74
2023/04/05 12:18:54;;;;;;;7.22;5.35;;;18.00;46.40;;;;;;4920561;29;20044;-74
2023/04/05 12:21:20;;;;;;;6.65;5.68;;;17.90;47.10;;;;;;4920340;29;20107;-74
2023/04/05 12:23:46;;;;;;;6.30;5.70;;;17.80;47.80;;;;;;4905181;29;20094;-74
2023/04/05 12:26:13;;;;;;;6.45;5.75;;;17.90;44.40;;;;;;4919428;29;20051;-74
2023/04/05 12:28:56;;;;;;;6.55;5.53;;;17.60;45.30;;;;;;4920555;29;20044;-74
2023/04/05 12:31:44;;;;;;;7.95;5.93;;;17.60;45.80;;;;;;4920218;29;20055;-71
2023/04/05 12:34:11;;;;;;;5.35;4.85;;;17.60;46.10;;;;;;4920799;29;20083;-73
2023/04/05 12:36:42;;;;;;;6.05;5.43;;;17.70;45.00;;;;;;4920348;29;20058;-73
2023/04/05 12:39:08;;;;;;;6.88;5.47;;;17.60;47.50;;;;;;4920247;29;20047;-72
2023/04/05 12:41:35;;;;;;;6.25;5.57;;;17.70;45.30;;;;;;4920161;29;20498;-72
2023/04/05 12:44:11;;;;;;;6.63;5.05;;;17.90;46.90;;;;;;4919370;29;20051;-72
2023/04/05 12:46:43;;;;;;;6.10;5.05;;;18.30;48.20;;;;;;4920492;29;20058;-73
2023/04/05 12:49:16;;;;;;;6.15;5.50;;;18.70;46.70;;;;;;4920145;29;20043;-73
2023/04/05 12:51:45;;;;;;;;;;;18.90;44.70;;;;;;4920148;29;20043;-72
2023/04/05 12:54:22;;;;;;;5.80;5.05;;;18.90;45.80;;;;;;4904179;29;19926;-72
2023/04/05 12:56:51;;;;;;;5.90;5.40;;;18.90;44.60;;;;;;4916973;29;20115;-72
2023/04/05 12:59:17;;;;;;;5.53;4.38;;;18.90;45.10;;;;;;4916802;29;20052;-72
2023/04/05 13:01:43;;;;;;;7.20;5.60;;;18.90;42.90;;;;;;4918888;29;20055;-72
2023/04/05 13:04:09;;;;;;;5.97;5.30;;;18.40;42.20;;;;;;4919865;29;20040;-72
2023/04/05 13:06:35;;;;;;;6.80;5.55;;;18.10;43.10;;;;;;4919965;29;20102;-71
2023/04/05 13:09:00;;;;;;;6.68;5.45;;;17.80;43.90;;;;;;4919875;29;20481;-73
2023/04/05 13:11:27;;;;;;;5.28;4.75;;;17.60;44.60;;;;;;4919614;29;20179;-73
2023/04/05 13:13:52;;;;;;;6.40;5.28;;;17.70;46.00;;;;;;4919625;29;20414;-73
2023/04/05 13:16:18;;;;;;;6.13;5.43;;;17.80;43.10;;;;;;4919739;29;20059;-73
2023/04/05 13:18:43;;;;;;;6.97;5.38;;;17.80;43.70;;;;;;4918905;29;20413;-73
2023/04/05 13:21:10;;;;;;;6.07;5.32;;;17.80;45.80;;;;;;4919309;29;20099;-73
2023/04/05 13:23:37;;;;;;;5.53;4.95;;;18.10;45.80;;;;;;4919862;29;20551;-73
2023/04/05 13:26:04;;;;;;;6.32;5.50;;;18.50;45.60;;;;;;4904018;29;20126;-73
2023/04/05 13:28:30;;;;;;;5.82;5.22;;;18.90;46.00;;;;;;4919295;29;20049;-73
2023/04/05 13:30:55;;;;;;;5.88;5.28;;;19.20;45.50;;;;;;4919033;29;20087;-73
2023/04/05 13:33:21;;;;;;;6.45;5.50;;;19.50;45.60;;;;;;4919446;29;20489;-73
2023/04/05 13:35:47;;;;;;;6.50;5.22;;;19.70;46.40;;;;;;4918379;29;20055;-73